createdAt,value
2022-08-11T00:01:24.625Z,15.40
2022-08-11T00:06:37.493Z,15.68
2022-08-11T00:11:44.766Z,14.73
2022-08-11T00:17:02.422Z,14.63
2022-08-11T00:22:06.523Z,14.10
2022-08-11T00:27:09.492Z,13.73
2022-08-11T00:32:17.515Z,14.05
2022-08-11T00:37:22.625Z,12.90
2022-08-11T00:43:00.295Z,13.25
2022-08-11T00:48:16.013Z,13.27
2022-08-11T00:53:47.272Z,14.23
2022-08-11T00:59:26.419Z,11.75
2022-08-11T01:05:04.620Z,10.60
2022-08-11T01:10:45.111Z,9.55
2022-08-11T01:16:09.675Z,9.65
2022-08-11T01:21:43.095Z,9.68
2022-08-11T01:27:00.633Z,11.10
2022-08-11T01:32:25.207Z,11.43
2022-08-11T01:37:43.398Z,12.02
2022-08-11T01:43:21.017Z,13.18
2022-08-11T01:48:43.042Z,12.70
2022-08-11T01:53:51.723Z,13.13
2022-08-11T01:59:19.249Z,12.60
2022-08-11T02:04:44.080Z,12.88
2022-08-11T02:09:55.785Z,12.55
2022-08-11T02:15:11.412Z,11.63
2022-08-11T02:21:16.982Z,10.63
2022-08-11T02:26:35.421Z,12.10
2022-08-11T02:32:11.076Z,12.50
2022-08-11T02:37:27.626Z,12.13
2022-08-11T02:42:45.874Z,12.45
2022-08-11T02:48:24.813Z,12.27
2022-08-11T02:53:37.898Z,12.82
2022-08-11T02:59:47.635Z,14.00
2022-08-11T03:05:07.689Z,13.98
2022-08-11T03:10:40.601Z,13.05
2022-08-11T03:16:11.238Z,13.57
2022-08-11T03:22:01.124Z,13.70
2022-08-11T03:26:55.351Z,13.18
2022-08-11T03:32:03.239Z,12.80
2022-08-11T03:37:43.095Z,11.20
2022-08-11T03:42:59.097Z,9.68
2022-08-11T03:48:21.702Z,9.50
2022-08-11T03:53:48.941Z,10.80
2022-08-11T03:59:13.154Z,10.27
2022-08-11T04:04:37.511Z,11.47
2022-08-11T04:10:11.097Z,12.13
2022-08-11T04:15:51.150Z,11.27
2022-08-11T04:21:30.604Z,11.68
2022-08-11T04:26:55.202Z,11.30
2022-08-11T04:32:01.004Z,10.55
2022-08-11T04:37:36.001Z,11.20
2022-08-11T04:43:21.575Z,12.32
2022-08-11T04:49:12.476Z,11.52
2022-08-11T04:55:08.031Z,11.35
2022-08-11T05:00:33.246Z,11.57
2022-08-11T05:05:56.340Z,14.10
2022-08-11T05:11:21.581Z,12.73
2022-08-11T05:16:48.574Z,13.88
2022-08-11T05:22:15.176Z,14.73
2022-08-11T05:27:38.981Z,15.65
2022-08-11T05:33:02.655Z,15.15
2022-08-11T05:38:30.457Z,17.30
2022-08-11T05:44:20.512Z,15.48
2022-08-11T05:49:34.399Z,17.30
2022-08-11T05:54:55.586Z,17.95
2022-08-11T06:00:10.757Z,16.10
2022-08-11T06:05:14.555Z,14.13
2022-08-11T06:10:30.575Z,13.15
2022-08-11T06:15:35.434Z,12.00
2022-08-11T06:20:48.109Z,11.77
2022-08-11T06:25:56.389Z,13.85
2022-08-11T06:31:00.041Z,14.15
2022-08-11T06:36:17.607Z,13.70
2022-08-11T06:41:49.674Z,13.38
2022-08-11T06:46:55.081Z,13.70
2022-08-11T06:52:04.559Z,14.30
2022-08-11T06:57:31.079Z,13.88
2022-08-11T07:03:01.162Z,14.80
2022-08-11T07:08:36.058Z,14.20
2022-08-11T07:13:58.386Z,13.68
2022-08-11T07:19:25.563Z,14.32
2022-08-11T07:25:12.283Z,14.18
2022-08-11T07:30:15.140Z,14.40
2022-08-11T07:35:28.864Z,13.65
2022-08-11T07:40:32.045Z,13.43
2022-08-11T07:45:53.151Z,13.85
2022-08-11T07:51:14.369Z,13.20
2022-08-11T07:56:21.899Z,13.05
2022-08-11T08:02:01.566Z,13.02
2022-08-11T08:07:24.304Z,13.45
2022-08-11T08:12:45.905Z,13.70
2022-08-11T08:18:09.106Z,14.23
2022-08-11T08:23:33.914Z,14.05
2022-08-11T08:28:37.094Z,13.52
2022-08-11T08:33:41.567Z,13.32
2022-08-11T08:38:50.831Z,12.67
2022-08-11T08:44:05.943Z,11.48
2022-08-11T08:49:24.321Z,11.93
2022-08-11T08:54:37.853Z,10.68
2022-08-11T08:59:48.920Z,11.73
2022-08-11T09:04:52.755Z,12.25
2022-08-11T09:09:58.128Z,11.90
2022-08-11T09:15:01.240Z,11.57
2022-08-11T09:20:13.820Z,13.27
2022-08-11T09:25:35.436Z,12.45
2022-08-11T09:30:43.105Z,12.75
2022-08-11T09:35:47.429Z,11.65
2022-08-11T09:40:52.926Z,12.93
2022-08-11T09:46:01.352Z,13.55
2022-08-11T09:51:04.860Z,15.00
2022-08-11T09:56:37.566Z,14.70
2022-08-11T10:02:03.687Z,16.58
2022-08-11T10:07:10.057Z,17.50
2022-08-11T10:12:17.544Z,17.63
2022-08-11T10:17:21.553Z,18.40
2022-08-11T10:22:43.233Z,22.10
2022-08-11T10:28:28.865Z,23.27
2022-08-11T10:33:37.960Z,22.98
2022-08-11T10:38:47.195Z,20.48
2022-08-11T10:44:01.122Z,27.83
2022-08-11T10:49:07.084Z,28.48
2022-08-11T10:54:28.690Z,27.63
2022-08-11T10:59:34.656Z,33.03
2022-08-11T11:04:53.793Z,36.53
2022-08-11T11:10:04.046Z,37.78
2022-08-11T11:15:25.993Z,32.38
2022-08-11T11:20:35.866Z,38.22
2022-08-11T11:26:06.978Z,37.60
2022-08-11T11:32:03.717Z,35.22
2022-08-11T11:37:06.787Z,35.47
2022-08-11T11:42:11.337Z,33.42
2022-08-11T11:47:14.826Z,31.35
2022-08-11T11:52:20.173Z,29.17
2022-08-11T11:57:41.683Z,30.38
2022-08-11T12:03:11.140Z,28.98
2022-08-11T12:08:17.821Z,29.80
2022-08-11T12:13:41.392Z,24.85
2022-08-11T12:18:48.255Z,30.42
2022-08-11T12:24:15.290Z,31.75
2022-08-11T12:29:20.271Z,29.48
2022-08-11T12:34:25.071Z,24.23
2022-08-11T12:40:15.644Z,27.95
2022-08-11T12:50:50.371Z,30.90
2022-08-11T12:56:13.662Z,31.75
2022-08-11T13:01:35.868Z,27.95
2022-08-11T13:06:39.068Z,27.85
2022-08-11T13:12:00.836Z,26.17
2022-08-11T13:17:40.457Z,21.55
2022-08-11T13:22:50.731Z,19.42
2022-08-11T13:27:56.629Z,17.95
2022-08-11T13:33:05.273Z,19.20
2022-08-11T13:38:19.418Z,16.65
2022-08-11T13:43:24.066Z,15.48
2022-08-11T13:48:28.503Z,15.85
2022-08-11T13:53:33.802Z,15.85
2022-08-11T13:58:39.961Z,17.33
2022-08-11T14:04:31.313Z,16.83
2022-08-11T14:09:12.668Z,13.13
2022-08-11T14:14:22.021Z,15.25
2022-08-11T14:19:26.836Z,14.30
2022-08-11T14:24:34.516Z,13.32
2022-08-11T14:29:46.313Z,13.07
2022-08-11T14:34:51.854Z,12.40
2022-08-11T14:40:02.866Z,11.57
2022-08-11T14:45:57.524Z,11.93
2022-08-11T14:50:51.683Z,10.25
2022-08-11T14:56:13.689Z,10.13
2022-08-11T15:01:35.094Z,8.73
2022-08-11T15:06:38.122Z,9.25
2022-08-11T15:12:00.196Z,9.20
2022-08-11T15:17:09.386Z,10.27
2022-08-11T15:22:30.460Z,11.20
2022-08-11T15:27:52.805Z,11.48
2022-08-11T15:33:14.759Z,11.00
2022-08-11T15:38:19.055Z,12.38
2022-08-11T15:43:57.790Z,12.23
2022-08-11T15:49:04.285Z,11.75
2022-08-11T15:54:13.808Z,11.30
2022-08-11T15:59:41.959Z,11.00
2022-08-11T16:04:47.854Z,9.20
2022-08-11T16:09:54.145Z,7.90
2022-08-11T16:15:26.434Z,7.15
2022-08-11T16:20:30.024Z,7.07
2022-08-11T16:27:01.743Z,6.85
2022-08-11T16:30:59.908Z,6.50
2022-08-11T16:36:23.019Z,5.90
2022-08-11T16:41:48.047Z,5.63
2022-08-11T16:47:00.540Z,5.38
2022-08-11T16:52:05.765Z,5.18
2022-08-11T16:57:50.981Z,4.70
2022-08-11T17:03:13.032Z,5.00
2022-08-11T17:08:39.149Z,3.88
2022-08-11T17:13:52.823Z,4.32
2022-08-11T17:19:00.468Z,4.43
2022-08-11T17:24:14.688Z,3.80
2022-08-11T17:29:54.064Z,4.07
2022-08-11T17:35:22.040Z,4.03
2022-08-11T17:40:26.861Z,3.40
2022-08-11T17:46:02.102Z,4.03
2022-08-11T17:51:13.673Z,3.38
2022-08-11T17:56:35.227Z,3.38
2022-08-11T18:01:39.711Z,3.33
2022-08-11T18:06:44.556Z,3.05
2022-08-11T18:12:11.732Z,4.00
2022-08-11T18:17:33.782Z,3.38
2022-08-11T18:23:00.717Z,3.85
2022-08-11T18:28:24.601Z,4.05
2022-08-11T18:34:07.038Z,3.15
2022-08-11T18:39:31.889Z,3.00
2022-08-11T18:44:54.540Z,3.22
2022-08-11T18:50:18.135Z,2.90
2022-08-11T18:55:50.927Z,2.95
2022-08-11T19:01:15.591Z,2.70
2022-08-11T19:06:40.758Z,3.20
2022-08-11T19:12:04.811Z,2.78
2022-08-11T19:17:44.216Z,2.50
2022-08-11T19:23:07.812Z,2.65
2022-08-11T19:28:28.833Z,2.38
2022-08-11T19:34:00.356Z,2.15
2022-08-11T19:39:32.955Z,2.53
2022-08-11T19:44:54.626Z,2.20
2022-08-11T19:50:20.163Z,1.98
2022-08-11T19:55:46.411Z,2.17
2022-08-11T20:01:08.093Z,1.77
2022-08-11T20:06:31.250Z,1.80
2022-08-11T20:11:59.559Z,1.50
2022-08-11T20:17:22.165Z,1.63
2022-08-11T20:22:48.488Z,1.60
2022-08-11T20:28:11.175Z,1.77
2022-08-11T20:33:32.703Z,1.40
2022-08-11T20:38:54.262Z,1.50
2022-08-11T20:44:18.514Z,1.45
2022-08-11T20:49:48.689Z,1.77
2022-08-11T20:55:18.955Z,1.60
2022-08-11T21:00:47.631Z,1.30
2022-08-11T21:06:11.077Z,1.30
2022-08-11T21:11:34.635Z,1.48
2022-08-11T21:16:56.630Z,1.50
2022-08-11T21:22:20.392Z,1.58
2022-08-11T21:27:51.603Z,1.33
2022-08-11T21:33:13.700Z,1.17
2022-08-11T21:38:36.435Z,1.30
2022-08-11T21:43:59.357Z,1.30
2022-08-11T21:49:21.299Z,1.40
2022-08-11T21:54:43.975Z,1.25
2022-08-11T22:00:15.366Z,1.38
2022-08-11T22:05:38.284Z,1.30
2022-08-11T22:10:59.751Z,1.40
2022-08-11T22:16:21.322Z,1.20
2022-08-11T22:22:01.585Z,1.50
2022-08-11T22:27:25.058Z,1.60
2022-08-11T22:32:46.384Z,1.60
2022-08-11T22:38:08.275Z,1.40
2022-08-11T22:43:29.716Z,1.20
2022-08-11T22:48:51.767Z,1.48
2022-08-11T22:54:13.287Z,2.97
2022-08-11T22:59:35.762Z,1.20
2022-08-11T23:04:58.117Z,1.48
2022-08-11T23:10:19.124Z,1.40
2022-08-11T23:15:41.043Z,1.30
2022-08-11T23:21:04.996Z,1.30
2022-08-11T23:26:26.676Z,1.52
2022-08-11T23:31:53.476Z,1.90
2022-08-11T23:37:15.011Z,1.60
2022-08-11T23:42:36.316Z,1.65
2022-08-11T23:47:58.500Z,1.30
2022-08-11T23:53:20.808Z,1.40
2022-08-11T23:58:42.414Z,1.40
